sensor_id;sensor_type;location;lat;lon;timestamp;P1;durP1;ratioP1;P2;durP2;ratioP2
13368;SDS011;6753;52.520;13.450;2023-09-19T00:00:01;69.53;;;42.88;;
13368;SDS011;6753;52.520;13.450;2023-09-19T00:00:12;69.68;;;42.53;;
13368;SDS011;6753;52.520;13.450;2023-09-19T00:00:23;70.57;;;43.20;;
13368;SDS011;6753;52.520;13.450;2023-09-19T00:00:37;70.45;;;43.35;;
13368;SDS011;6753;52.520;13.450;2023-09-19T00:00:48;71.43;;;43.53;;
13368;SDS011;6753;52.520;13.450;2023-09-19T00:00:59;70.63;;;43.15;;
13368;SDS011;6753;52.520;13.450;2023-09-19T00:01:10;70.05;;;42.70;;
13368;SDS011;6753;52.520;13.450;2023-09-19T00:01:22;70.72;;;42.22;;
13368;SDS011;6753;52.520;13.450;2023-09-19T00:01:34;71.40;;;42.30;;
13368;SDS011;6753;52.520;13.450;2023-09-19T00:01:44;71.40;;;42.40;;
13368;SDS011;6753;52.520;13.450;2023-09-19T00:01:55;71.53;;;42.75;;
13368;SDS011;6753;52.520;13.450;2023-09-19T00:02:07;70.88;;;43.13;;
13368;SDS011;6753;52.520;13.450;2023-09-19T00:02:18;71.28;;;43.25;;
13368;SDS011;6753;52.520;13.450;2023-09-19T00:02:29;72.25;;;43.50;;
13368;SDS011;6753;52.520;13.450;2023-09-19T00:02:40;71.50;;;42.75;;
13368;SDS011;6753;52.520;13.450;2023-09-19T00:02:57;71.40;;;42.35;;
13368;SDS011;6753;52.520;13.450;2023-09-19T00:03:09;69.75;;;42.13;;
13368;SDS011;6753;52.520;13.450;2023-09-19T00:03:21;69.18;;;42.38;;
13368;SDS011;6753;52.520;13.450;2023-09-19T00:03:33;68.07;;;42.55;;
13368;SDS011;6753;52.520;13.450;2023-09-19T00:03:43;68.70;;;43.25;;
13368;SDS011;6753;52.520;13.450;2023-09-19T00:03:54;66.93;;;42.72;;
13368;SDS011;6753;52.520;13.450;2023-09-19T00:04:05;68.88;;;43.38;;
13368;SDS011;6753;52.520;13.450;2023-09-19T00:04:19;69.18;;;43.53;;
13368;SDS011;6753;52.520;13.450;2023-09-19T00:04:33;70.57;;;43.90;;
13368;SDS011;6753;52.520;13.450;2023-09-19T00:04:44;72.38;;;43.63;;
13368;SDS011;6753;52.520;13.450;2023-09-19T00:04:56;74.15;;;43.60;;
13368;SDS011;6753;52.520;13.450;2023-09-19T00:05:07;75.07;;;43.40;;
13368;SDS011;6753;52.520;13.450;2023-09-19T00:05:19;75.35;;;42.97;;
13368;SDS011;6753;52.520;13.450;2023-09-19T00:05:34;74.00;;;42.35;;
13368;SDS011;6753;52.520;13.450;2023-09-19T00:05:45;71.75;;;42.13;;
13368;SDS011;6753;52.520;13.450;2023-09-19T00:05:57;71.80;;;42.90;;
13368;SDS011;6753;52.520;13.450;2023-09-19T00:06:09;71.70;;;42.80;;
13368;SDS011;6753;52.520;13.450;2023-09-19T00:06:23;71.35;;;42.88;;
13368;SDS011;6753;52.520;13.450;2023-09-19T00:06:36;72.30;;;42.83;;
13368;SDS011;6753;52.520;13.450;2023-09-19T00:06:47;72.68;;;42.80;;
13368;SDS011;6753;52.520;13.450;2023-09-19T00:06:58;74.47;;;42.80;;
13368;SDS011;6753;52.520;13.450;2023-09-19T00:07:08;74.13;;;42.97;;
13368;SDS011;6753;52.520;13.450;2023-09-19T00:07:19;73.82;;;43.08;;
13368;SDS011;6753;52.520;13.450;2023-09-19T00:07:31;72.18;;;42.50;;
13368;SDS011;6753;52.520;13.450;2023-09-19T00:07:42;71.38;;;42.25;;
13368;SDS011;6753;52.520;13.450;2023-09-19T00:07:53;70.03;;;41.95;;
13368;SDS011;6753;52.520;13.450;2023-09-19T00:08:05;70.00;;;41.95;;
13368;SDS011;6753;52.520;13.450;2023-09-19T00:08:16;70.15;;;41.90;;
13368;SDS011;6753;52.520;13.450;2023-09-19T00:08:32;72.60;;;42.22;;
13368;SDS011;6753;52.520;13.450;2023-09-19T00:08:43;72.90;;;42.80;;
13368;SDS011;6753;52.520;13.450;2023-09-19T00:08:54;72.13;;;42.70;;
13368;SDS011;6753;52.520;13.450;2023-09-19T00:09:05;70.10;;;41.87;;
13368;SDS011;6753;52.520;13.450;2023-09-19T00:09:20;69.82;;;41.28;;
13368;SDS011;6753;52.520;13.450;2023-09-19T00:09:31;69.50;;;41.50;;
13368;SDS011;6753;52.520;13.450;2023-09-19T00:09:47;70.80;;;41.28;;
13368;SDS011;6753;52.520;13.450;2023-09-19T00:09:58;73.65;;;41.92;;
13368;SDS011;6753;52.520;13.450;2023-09-19T00:10:10;74.20;;;42.30;;
13368;SDS011;6753;52.520;13.450;2023-09-19T00:10:21;74.85;;;42.30;;
13368;SDS011;6753;52.520;13.450;2023-09-19T00:10:34;75.43;;;42.38;;
13368;SDS011;6753;52.520;13.450;2023-09-19T00:10:45;76.27;;;42.63;;
13368;SDS011;6753;52.520;13.450;2023-09-19T00:10:56;73.50;;;42.08;;
13368;SDS011;6753;52.520;13.450;2023-09-19T00:11:08;72.88;;;42.20;;
13368;SDS011;6753;52.520;13.450;2023-09-19T00:11:20;72.18;;;42.63;;
13368;SDS011;6753;52.520;13.450;2023-09-19T00:11:31;71.95;;;42.55;;
13368;SDS011;6753;52.520;13.450;2023-09-19T00:11:42;70.87;;;42.47;;
13368;SDS011;6753;52.520;13.450;2023-09-19T00:11:54;70.45;;;42.65;;
13368;SDS011;6753;52.520;13.450;2023-09-19T00:12:05;69.77;;;42.70;;
13368;SDS011;6753;52.520;13.450;2023-09-19T00:12:17;69.85;;;42.63;;
13368;SDS011;6753;52.520;13.450;2023-09-19T00:12:28;69.22;;;42.38;;
13368;SDS011;6753;52.520;13.450;2023-09-19T00:12:42;69.47;;;42.33;;
13368;SDS011;6753;52.520;13.450;2023-09-19T00:12:53;69.35;;;42.15;;
13368;SDS011;6753;52.520;13.450;2023-09-19T00:13:05;70.43;;;41.88;;
13368;SDS011;6753;52.520;13.450;2023-09-19T00:13:17;70.07;;;41.85;;
13368;SDS011;6753;52.520;13.450;2023-09-19T00:13:28;69.82;;;41.78;;
13368;SDS011;6753;52.520;13.450;2023-09-19T00:13:40;70.30;;;41.78;;
13368;SDS011;6753;52.520;13.450;2023-09-19T00:13:51;70.70;;;41.57;;
13368;SDS011;6753;52.520;13.450;2023-09-19T00:14:03;71.32;;;41.95;;
13368;SDS011;6753;52.520;13.450;2023-09-19T00:14:15;70.90;;;41.72;;
13368;SDS011;6753;52.520;13.450;2023-09-19T00:14:25;71.00;;;41.80;;
13368;SDS011;6753;52.520;13.450;2023-09-19T00:14:36;69.20;;;41.80;;
13368;SDS011;6753;52.520;13.450;2023-09-19T00:14:47;69.88;;;41.78;;
13368;SDS011;6753;52.520;13.450;2023-09-19T00:14:58;68.82;;;41.85;;
13368;SDS011;6753;52.520;13.450;2023-09-19T00:15:10;70.30;;;42.03;;
13368;SDS011;6753;52.520;13.450;2023-09-19T00:15:22;69.78;;;41.67;;
13368;SDS011;6753;52.520;13.450;2023-09-19T00:15:35;70.33;;;41.73;;
13368;SDS011;6753;52.520;13.450;2023-09-19T00:15:48;69.35;;;42.10;;
13368;SDS011;6753;52.520;13.450;2023-09-19T00:15:58;69.65;;;42.00;;
13368;SDS011;6753;52.520;13.450;2023-09-19T00:16:10;68.90;;;41.35;;
13368;SDS011;6753;52.520;13.450;2023-09-19T00:16:21;69.90;;;41.67;;
13368;SDS011;6753;52.520;13.450;2023-09-19T00:16:33;69.95;;;41.60;;
13368;SDS011;6753;52.520;13.450;2023-09-19T00:16:44;68.85;;;41.00;;
13368;SDS011;6753;52.520;13.450;2023-09-19T00:16:56;68.88;;;40.90;;
13368;SDS011;6753;52.520;13.450;2023-09-19T00:17:07;69.95;;;41.35;;
13368;SDS011;6753;52.520;13.450;2023-09-19T00:17:18;69.13;;;42.08;;
13368;SDS011;6753;52.520;13.450;2023-09-19T00:17:29;69.43;;;41.92;;
13368;SDS011;6753;52.520;13.450;2023-09-19T00:17:41;69.95;;;41.90;;
13368;SDS011;6753;52.520;13.450;2023-09-19T00:17:53;71.15;;;41.72;;
13368;SDS011;6753;52.520;13.450;2023-09-19T00:18:04;69.72;;;41.78;;
13368;SDS011;6753;52.520;13.450;2023-09-19T00:18:16;71.43;;;41.55;;
13368;SDS011;6753;52.520;13.450;2023-09-19T00:18:28;70.15;;;41.30;;
13368;SDS011;6753;52.520;13.450;2023-09-19T00:18:42;70.50;;;41.65;;
13368;SDS011;6753;52.520;13.450;2023-09-19T00:18:53;69.73;;;42.07;;
13368;SDS011;6753;52.520;13.450;2023-09-19T00:19:04;71.18;;;42.20;;
13368;SDS011;6753;52.520;13.450;2023-09-19T00:19:18;72.40;;;41.92;;
13368;SDS011;6753;52.520;13.450;2023-09-19T00:19:30;73.32;;;42.30;;
13368;SDS011;6753;52.520;13.450;2023-09-19T00:19:42;73.32;;;42.13;;
13368;SDS011;6753;52.520;13.450;2023-09-19T00:19:54;72.78;;;41.55;;
13368;SDS011;6753;52.520;13.450;2023-09-19T00:20:07;69.90;;;40.42;;
13368;SDS011;6753;52.520;13.450;2023-09-19T00:20:23;67.15;;;40.25;;
13368;SDS011;6753;52.520;13.450;2023-09-19T00:20:35;66.20;;;40.15;;
13368;SDS011;6753;52.520;13.450;2023-09-19T00:20:46;65.15;;;39.97;;
13368;SDS011;6753;52.520;13.450;2023-09-19T00:20:57;66.53;;;40.58;;
13368;SDS011;6753;52.520;13.450;2023-09-19T00:21:09;67.68;;;40.65;;
13368;SDS011;6753;52.520;13.450;2023-09-19T00:21:21;69.78;;;40.78;;
13368;SDS011;6753;52.520;13.450;2023-09-19T00:21:32;70.03;;;41.10;;
13368;SDS011;6753;52.520;13.450;2023-09-19T00:21:43;72.53;;;41.60;;
13368;SDS011;6753;52.520;13.450;2023-09-19T00:21:55;72.55;;;41.42;;
13368;SDS011;6753;52.520;13.450;2023-09-19T00:22:06;72.10;;;41.70;;
13368;SDS011;6753;52.520;13.450;2023-09-19T00:22:17;70.60;;;42.05;;
13368;SDS011;6753;52.520;13.450;2023-09-19T00:22:28;70.53;;;41.88;;
13368;SDS011;6753;52.520;13.450;2023-09-19T00:22:40;68.03;;;41.40;;
13368;SDS011;6753;52.520;13.450;2023-09-19T00:22:51;67.07;;;41.60;;
13368;SDS011;6753;52.520;13.450;2023-09-19T00:23:03;72.28;;;42.10;;
13368;SDS011;6753;52.520;13.450;2023-09-19T00:23:14;73.65;;;41.72;;
13368;SDS011;6753;52.520;13.450;2023-09-19T00:23:25;74.13;;;41.42;;
13368;SDS011;6753;52.520;13.450;2023-09-19T00:23:37;75.97;;;41.35;;
13368;SDS011;6753;52.520;13.450;2023-09-19T00:23:48;78.22;;;40.58;;
13368;SDS011;6753;52.520;13.450;2023-09-19T00:24:01;76.78;;;40.42;;
13368;SDS011;6753;52.520;13.450;2023-09-19T00:24:12;77.50;;;40.72;;
13368;SDS011;6753;52.520;13.450;2023-09-19T00:24:23;78.57;;;41.55;;
13368;SDS011;6753;52.520;13.450;2023-09-19T00:24:34;77.97;;;41.30;;
13368;SDS011;6753;52.520;13.450;2023-09-19T00:24:45;76.75;;;41.95;;
13368;SDS011;6753;52.520;13.450;2023-09-19T00:24:56;75.30;;;41.67;;
13368;SDS011;6753;52.520;13.450;2023-09-19T00:25:07;71.18;;;40.70;;
13368;SDS011;6753;52.520;13.450;2023-09-19T00:25:21;70.00;;;40.53;;
13368;SDS011;6753;52.520;13.450;2023-09-19T00:25:31;70.38;;;40.60;;
13368;SDS011;6753;52.520;13.450;2023-09-19T00:25:42;70.40;;;40.92;;
13368;SDS011;6753;52.520;13.450;2023-09-19T00:25:53;70.68;;;41.10;;
13368;SDS011;6753;52.520;13.450;2023-09-19T00:26:07;72.90;;;41.97;;
13368;SDS011;6753;52.520;13.450;2023-09-19T00:26:18;70.70;;;41.83;;
13368;SDS011;6753;52.520;13.450;2023-09-19T00:26:31;69.10;;;42.08;;
13368;SDS011;6753;52.520;13.450;2023-09-19T00:26:42;67.90;;;41.58;;
13368;SDS011;6753;52.520;13.450;2023-09-19T00:26:53;68.05;;;41.55;;
13368;SDS011;6753;52.520;13.450;2023-09-19T00:27:05;67.13;;;41.20;;
13368;SDS011;6753;52.520;13.450;2023-09-19T00:27:18;67.28;;;40.65;;
13368;SDS011;6753;52.520;13.450;2023-09-19T00:27:29;67.60;;;40.65;;
13368;SDS011;6753;52.520;13.450;2023-09-19T00:27:39;66.65;;;40.10;;
13368;SDS011;6753;52.520;13.450;2023-09-19T00:27:54;66.22;;;39.78;;
13368;SDS011;6753;52.520;13.450;2023-09-19T00:28:05;66.63;;;39.75;;
13368;SDS011;6753;52.520;13.450;2023-09-19T00:28:17;66.82;;;39.78;;
13368;SDS011;6753;52.520;13.450;2023-09-19T00:28:28;66.13;;;39.47;;
13368;SDS011;6753;52.520;13.450;2023-09-19T00:28:41;67.78;;;40.45;;
13368;SDS011;6753;52.520;13.450;2023-09-19T00:28:52;68.13;;;40.30;;
13368;SDS011;6753;52.520;13.450;2023-09-19T00:29:03;67.38;;;40.10;;
13368;SDS011;6753;52.520;13.450;2023-09-19T00:29:14;68.10;;;40.67;;
13368;SDS011;6753;52.520;13.450;2023-09-19T00:29:26;67.78;;;40.53;;
13368;SDS011;6753;52.520;13.450;2023-09-19T00:29:39;67.50;;;40.20;;
13368;SDS011;6753;52.520;13.450;2023-09-19T00:29:50;70.80;;;40.05;;
13368;SDS011;6753;52.520;13.450;2023-09-19T00:30:03;72.13;;;41.10;;
13368;SDS011;6753;52.520;13.450;2023-09-19T00:30:14;71.15;;;40.75;;
13368;SDS011;6753;52.520;13.450;2023-09-19T00:30:26;71.45;;;41.00;;
13368;SDS011;6753;52.520;13.450;2023-09-19T00:30:37;71.20;;;40.90;;
13368;SDS011;6753;52.520;13.450;2023-09-19T00:30:49;69.22;;;41.38;;
13368;SDS011;6753;52.520;13.450;2023-09-19T00:31:00;69.85;;;40.88;;
13368;SDS011;6753;52.520;13.450;2023-09-19T00:31:11;70.25;;;41.47;;
13368;SDS011;6753;52.520;13.450;2023-09-19T00:31:22;70.38;;;41.13;;
13368;SDS011;6753;52.520;13.450;2023-09-19T00:31:33;69.93;;;41.10;;
13368;SDS011;6753;52.520;13.450;2023-09-19T00:31:44;70.10;;;41.38;;
13368;SDS011;6753;52.520;13.450;2023-09-19T00:31:55;68.55;;;41.30;;
13368;SDS011;6753;52.520;13.450;2023-09-19T00:32:06;68.35;;;40.90;;
13368;SDS011;6753;52.520;13.450;2023-09-19T00:32:18;66.95;;;40.15;;
13368;SDS011;6753;52.520;13.450;2023-09-19T00:32:29;67.88;;;39.97;;
13368;SDS011;6753;52.520;13.450;2023-09-19T00:32:40;68.07;;;40.15;;
13368;SDS011;6753;52.520;13.450;2023-09-19T00:32:52;67.63;;;39.60;;
13368;SDS011;6753;52.520;13.450;2023-09-19T00:33:04;66.47;;;39.85;;
13368;SDS011;6753;52.520;13.450;2023-09-19T00:33:17;68.05;;;40.08;;
13368;SDS011;6753;52.520;13.450;2023-09-19T00:33:29;69.82;;;40.72;;
13368;SDS011;6753;52.520;13.450;2023-09-19T00:33:40;70.50;;;40.90;;
13368;SDS011;6753;52.520;13.450;2023-09-19T00:33:51;71.00;;;41.15;;
13368;SDS011;6753;52.520;13.450;2023-09-19T00:34:03;73.25;;;41.10;;
13368;SDS011;6753;52.520;13.450;2023-09-19T00:34:14;72.97;;;41.20;;
13368;SDS011;6753;52.520;13.450;2023-09-19T00:34:26;70.20;;;40.88;;
13368;SDS011;6753;52.520;13.450;2023-09-19T00:34:38;69.32;;;40.53;;
13368;SDS011;6753;52.520;13.450;2023-09-19T00:34:48;67.88;;;40.28;;
13368;SDS011;6753;52.520;13.450;2023-09-19T00:34:59;66.78;;;40.13;;
13368;SDS011;6753;52.520;13.450;2023-09-19T00:35:11;67.45;;;40.70;;
13368;SDS011;6753;52.520;13.450;2023-09-19T00:35:22;66.72;;;40.35;;
13368;SDS011;6753;52.520;13.450;2023-09-19T00:35:33;67.88;;;40.28;;
13368;SDS011;6753;52.520;13.450;2023-09-19T00:35:47;68.30;;;40.30;;
13368;SDS011;6753;52.520;13.450;2023-09-19T00:35:58;67.55;;;40.22;;
13368;SDS011;6753;52.520;13.450;2023-09-19T00:36:09;66.78;;;39.95;;
13368;SDS011;6753;52.520;13.450;2023-09-19T00:36:20;67.77;;;40.37;;
13368;SDS011;6753;52.520;13.450;2023-09-19T00:36:31;66.22;;;40.17;;
13368;SDS011;6753;52.520;13.450;2023-09-19T00:36:43;67.32;;;40.10;;
13368;SDS011;6753;52.520;13.450;2023-09-19T00:36:55;69.18;;;40.10;;
13368;SDS011;6753;52.520;13.450;2023-09-19T00:37:05;69.47;;;39.92;;
13368;SDS011;6753;52.520;13.450;2023-09-19T00:37:16;71.10;;;39.90;;
13368;SDS011;6753;52.520;13.450;2023-09-19T00:37:28;70.90;;;40.20;;
13368;SDS011;6753;52.520;13.450;2023-09-19T00:37:38;70.75;;;40.35;;
13368;SDS011;6753;52.520;13.450;2023-09-19T00:37:49;70.00;;;40.50;;
13368;SDS011;6753;52.520;13.450;2023-09-19T00:38:00;69.53;;;40.50;;
13368;SDS011;6753;52.520;13.450;2023-09-19T00:38:11;70.72;;;40.60;;
13368;SDS011;6753;52.520;13.450;2023-09-19T00:38:25;71.43;;;40.08;;
13368;SDS011;6753;52.520;13.450;2023-09-19T00:38:37;71.10;;;40.40;;
13368;SDS011;6753;52.520;13.450;2023-09-19T00:38:48;70.97;;;40.30;;
13368;SDS011;6753;52.520;13.450;2023-09-19T00:38:59;70.88;;;40.10;;
13368;SDS011;6753;52.520;13.450;2023-09-19T00:39:10;69.32;;;40.08;;
13368;SDS011;6753;52.520;13.450;2023-09-19T00:39:20;68.57;;;40.10;;
13368;SDS011;6753;52.520;13.450;2023-09-19T00:39:32;67.70;;;40.05;;
13368;SDS011;6753;52.520;13.450;2023-09-19T00:39:42;67.43;;;39.67;;
13368;SDS011;6753;52.520;13.450;2023-09-19T00:39:53;66.70;;;39.55;;
13368;SDS011;6753;52.520;13.450;2023-09-19T00:40:05;66.15;;;39.67;;
13368;SDS011;6753;52.520;13.450;2023-09-19T00:40:20;67.10;;;39.85;;
13368;SDS011;6753;52.520;13.450;2023-09-19T00:40:32;68.05;;;40.03;;
13368;SDS011;6753;52.520;13.450;2023-09-19T00:40:43;67.53;;;40.20;;
13368;SDS011;6753;52.520;13.450;2023-09-19T00:40:54;68.25;;;40.13;;
13368;SDS011;6753;52.520;13.450;2023-09-19T00:41:07;68.90;;;40.05;;
13368;SDS011;6753;52.520;13.450;2023-09-19T00:41:17;69.07;;;40.17;;
13368;SDS011;6753;52.520;13.450;2023-09-19T00:41:28;68.15;;;39.92;;
13368;SDS011;6753;52.520;13.450;2023-09-19T00:41:40;67.63;;;39.78;;
13368;SDS011;6753;52.520;13.450;2023-09-19T00:41:54;67.43;;;40.10;;
13368;SDS011;6753;52.520;13.450;2023-09-19T00:42:05;66.63;;;40.13;;
13368;SDS011;6753;52.520;13.450;2023-09-19T00:42:18;64.10;;;39.70;;
13368;SDS011;6753;52.520;13.450;2023-09-19T00:42:31;63.65;;;39.35;;
13368;SDS011;6753;52.520;13.450;2023-09-19T00:42:43;64.45;;;39.25;;
13368;SDS011;6753;52.520;13.450;2023-09-19T00:42:57;65.43;;;39.28;;
13368;SDS011;6753;52.520;13.450;2023-09-19T00:43:10;66.00;;;39.40;;
13368;SDS011;6753;52.520;13.450;2023-09-19T00:43:21;66.47;;;39.40;;
13368;SDS011;6753;52.520;13.450;2023-09-19T00:43:34;66.78;;;39.90;;
13368;SDS011;6753;52.520;13.450;2023-09-19T00:43:44;64.95;;;39.53;;
13368;SDS011;6753;52.520;13.450;2023-09-19T00:43:55;63.00;;;39.13;;
13368;SDS011;6753;52.520;13.450;2023-09-19T00:44:06;61.80;;;38.92;;
13368;SDS011;6753;52.520;13.450;2023-09-19T00:44:17;63.63;;;39.17;;
13368;SDS011;6753;52.520;13.450;2023-09-19T00:44:29;63.47;;;39.22;;
13368;SDS011;6753;52.520;13.450;2023-09-19T00:44:41;64.30;;;39.60;;
13368;SDS011;6753;52.520;13.450;2023-09-19T00:44:52;63.80;;;39.15;;
13368;SDS011;6753;52.520;13.450;2023-09-19T00:45:03;64.60;;;39.42;;
13368;SDS011;6753;52.520;13.450;2023-09-19T00:45:16;63.47;;;39.03;;
13368;SDS011;6753;52.520;13.450;2023-09-19T00:45:28;62.78;;;39.03;;
13368;SDS011;6753;52.520;13.450;2023-09-19T00:45:39;63.90;;;38.90;;
13368;SDS011;6753;52.520;13.450;2023-09-19T00:45:54;64.43;;;39.13;;
13368;SDS011;6753;52.520;13.450;2023-09-19T00:46:07;66.38;;;39.33;;
13368;SDS011;6753;52.520;13.450;2023-09-19T00:46:19;67.55;;;39.67;;
13368;SDS011;6753;52.520;13.450;2023-09-19T00:46:30;67.90;;;39.38;;
13368;SDS011;6753;52.520;13.450;2023-09-19T00:46:42;67.88;;;39.65;;
13368;SDS011;6753;52.520;13.450;2023-09-19T00:46:53;68.25;;;40.30;;
13368;SDS011;6753;52.520;13.450;2023-09-19T00:47:04;66.43;;;40.03;;
13368;SDS011;6753;52.520;13.450;2023-09-19T00:47:15;65.28;;;39.53;;
13368;SDS011;6753;52.520;13.450;2023-09-19T00:47:27;65.50;;;40.17;;
13368;SDS011;6753;52.520;13.450;2023-09-19T00:47:38;65.00;;;39.50;;
13368;SDS011;6753;52.520;13.450;2023-09-19T00:47:50;64.18;;;39.00;;
13368;SDS011;6753;52.520;13.450;2023-09-19T00:48:02;66.18;;;39.13;;
13368;SDS011;6753;52.520;13.450;2023-09-19T00:48:13;66.40;;;39.08;;
13368;SDS011;6753;52.520;13.450;2023-09-19T00:48:25;66.25;;;38.53;;
13368;SDS011;6753;52.520;13.450;2023-09-19T00:48:38;66.93;;;39.20;;
13368;SDS011;6753;52.520;13.450;2023-09-19T00:48:54;66.68;;;39.13;;
13368;SDS011;6753;52.520;13.450;2023-09-19T00:49:07;65.75;;;38.85;;
13368;SDS011;6753;52.520;13.450;2023-09-19T00:49:19;66.32;;;39.50;;
13368;SDS011;6753;52.520;13.450;2023-09-19T00:49:32;66.18;;;39.30;;
13368;SDS011;6753;52.520;13.450;2023-09-19T00:49:43;66.20;;;39.30;;
13368;SDS011;6753;52.520;13.450;2023-09-19T00:49:54;66.20;;;39.22;;
13368;SDS011;6753;52.520;13.450;2023-09-19T00:50:05;67.45;;;39.55;;
13368;SDS011;6753;52.520;13.450;2023-09-19T00:50:18;68.75;;;39.50;;
13368;SDS011;6753;52.520;13.450;2023-09-19T00:50:32;69.93;;;40.00;;
13368;SDS011;6753;52.520;13.450;2023-09-19T00:50:43;70.47;;;39.97;;
13368;SDS011;6753;52.520;13.450;2023-09-19T00:50:56;70.00;;;39.78;;
13368;SDS011;6753;52.520;13.450;2023-09-19T00:51:10;69.65;;;39.97;;
13368;SDS011;6753;52.520;13.450;2023-09-19T00:51:21;69.47;;;39.80;;
13368;SDS011;6753;52.520;13.450;2023-09-19T00:51:32;66.85;;;39.03;;
13368;SDS011;6753;52.520;13.450;2023-09-19T00:51:43;66.15;;;38.90;;
13368;SDS011;6753;52.520;13.450;2023-09-19T00:51:57;65.72;;;38.90;;
13368;SDS011;6753;52.520;13.450;2023-09-19T00:52:08;64.53;;;38.47;;
13368;SDS011;6753;52.520;13.450;2023-09-19T00:52:21;63.67;;;38.60;;
13368;SDS011;6753;52.520;13.450;2023-09-19T00:52:33;63.80;;;38.58;;
13368;SDS011;6753;52.520;13.450;2023-09-19T00:52:46;64.22;;;38.20;;
13368;SDS011;6753;52.520;13.450;2023-09-19T00:52:59;64.50;;;38.08;;
13368;SDS011;6753;52.520;13.450;2023-09-19T00:53:12;66.53;;;38.80;;
13368;SDS011;6753;52.520;13.450;2023-09-19T00:53:25;67.32;;;38.70;;
13368;SDS011;6753;52.520;13.450;2023-09-19T00:53:37;68.72;;;39.03;;
13368;SDS011;6753;52.520;13.450;2023-09-19T00:53:49;67.05;;;38.90;;
13368;SDS011;6753;52.520;13.450;2023-09-19T00:54:00;66.82;;;39.25;;
13368;SDS011;6753;52.520;13.450;2023-09-19T00:54:12;65.25;;;38.88;;
13368;SDS011;6753;52.520;13.450;2023-09-19T00:54:28;65.90;;;38.47;;
13368;SDS011;6753;52.520;13.450;2023-09-19T00:54:40;66.30;;;38.50;;
13368;SDS011;6753;52.520;13.450;2023-09-19T00:54:51;66.22;;;38.47;;
13368;SDS011;6753;52.520;13.450;2023-09-19T00:55:02;65.20;;;38.03;;
13368;SDS011;6753;52.520;13.450;2023-09-19T00:55:15;64.20;;;37.70;;
13368;SDS011;6753;52.520;13.450;2023-09-19T00:55:27;62.42;;;37.78;;
13368;SDS011;6753;52.520;13.450;2023-09-19T00:55:40;63.50;;;38.28;;
13368;SDS011;6753;52.520;13.450;2023-09-19T00:55:52;62.85;;;38.30;;
13368;SDS011;6753;52.520;13.450;2023-09-19T00:56:03;64.45;;;38.78;;
13368;SDS011;6753;52.520;13.450;2023-09-19T00:56:17;66.45;;;39.33;;
13368;SDS011;6753;52.520;13.450;2023-09-19T00:56:28;68.05;;;39.47;;
13368;SDS011;6753;52.520;13.450;2023-09-19T00:56:39;66.80;;;39.42;;
13368;SDS011;6753;52.520;13.450;2023-09-19T00:56:51;68.15;;;39.90;;
13368;SDS011;6753;52.520;13.450;2023-09-19T00:57:04;66.72;;;39.50;;
13368;SDS011;6753;52.520;13.450;2023-09-19T00:57:15;64.65;;;39.15;;
13368;SDS011;6753;52.520;13.450;2023-09-19T00:57:29;62.67;;;38.47;;
13368;SDS011;6753;52.520;13.450;2023-09-19T00:57:43;61.17;;;38.10;;
13368;SDS011;6753;52.520;13.450;2023-09-19T00:57:55;60.35;;;37.80;;
13368;SDS011;6753;52.520;13.450;2023-09-19T00:58:06;60.13;;;37.38;;
13368;SDS011;6753;52.520;13.450;2023-09-19T00:58:17;60.28;;;37.28;;
13368;SDS011;6753;52.520;13.450;2023-09-19T00:58:28;61.28;;;37.35;;
13368;SDS011;6753;52.520;13.450;2023-09-19T00:58:43;61.72;;;37.50;;
13368;SDS011;6753;52.520;13.450;2023-09-19T00:58:56;62.15;;;37.28;;
13368;SDS011;6753;52.520;13.450;2023-09-19T00:59:07;62.35;;;37.58;;
13368;SDS011;6753;52.520;13.450;2023-09-19T00:59:18;63.55;;;37.90;;
13368;SDS011;6753;52.520;13.450;2023-09-19T00:59:29;64.30;;;38.22;;
13368;SDS011;6753;52.520;13.450;2023-09-19T00:59:40;64.95;;;38.33;;
13368;SDS011;6753;52.520;13.450;2023-09-19T00:59:51;66.55;;;39.03;;
13368;SDS011;6753;52.520;13.450;2023-09-19T01:00:07;66.63;;;39.17;;
13368;SDS011;6753;52.520;13.450;2023-09-19T01:00:22;64.82;;;38.55;;
13368;SDS011;6753;52.520;13.450;2023-09-19T01:00:34;63.28;;;38.63;;
13368;SDS011;6753;52.520;13.450;2023-09-19T01:00:46;62.40;;;38.22;;
13368;SDS011;6753;52.520;13.450;2023-09-19T01:00:58;62.00;;;37.65;;
13368;SDS011;6753;52.520;13.450;2023-09-19T01:01:09;63.08;;;37.63;;
13368;SDS011;6753;52.520;13.450;2023-09-19T01:01:21;62.92;;;38.15;;
13368;SDS011;6753;52.520;13.450;2023-09-19T01:01:33;63.95;;;38.05;;
13368;SDS011;6753;52.520;13.450;2023-09-19T01:01:43;65.30;;;38.07;;
13368;SDS011;6753;52.520;13.450;2023-09-19T01:01:56;67.70;;;38.53;;
13368;SDS011;6753;52.520;13.450;2023-09-19T01:02:07;66.95;;;38.35;;
13368;SDS011;6753;52.520;13.450;2023-09-19T01:02:18;67.78;;;38.42;;
13368;SDS011;6753;52.520;13.450;2023-09-19T01:02:29;67.70;;;38.45;;
13368;SDS011;6753;52.520;13.450;2023-09-19T01:02:40;66.43;;;38.83;;
13368;SDS011;6753;52.520;13.450;2023-09-19T01:02:52;62.85;;;38.10;;
13368;SDS011;6753;52.520;13.450;2023-09-19T01:03:05;61.00;;;37.30;;
13368;SDS011;6753;52.520;13.450;2023-09-19T01:03:16;60.17;;;37.20;;
13368;SDS011;6753;52.520;13.450;2023-09-19T01:03:28;60.78;;;37.40;;
13368;SDS011;6753;52.520;13.450;2023-09-19T01:03:39;60.30;;;37.30;;
13368;SDS011;6753;52.520;13.450;2023-09-19T01:03:50;60.75;;;37.75;;
13368;SDS011;6753;52.520;13.450;2023-09-19T01:04:01;61.55;;;38.15;;
13368;SDS011;6753;52.520;13.450;2023-09-19T01:04:13;62.58;;;38.60;;
13368;SDS011;6753;52.520;13.450;2023-09-19T01:04:24;61.30;;;38.50;;
13368;SDS011;6753;52.520;13.450;2023-09-19T01:04:36;61.42;;;38.42;;
13368;SDS011;6753;52.520;13.450;2023-09-19T01:04:47;62.00;;;38.28;;
13368;SDS011;6753;52.520;13.450;2023-09-19T01:04:58;62.10;;;38.40;;
13368;SDS011;6753;52.520;13.450;2023-09-19T01:05:10;62.83;;;38.28;;
13368;SDS011;6753;52.520;13.450;2023-09-19T01:05:22;62.85;;;38.15;;
13368;SDS011;6753;52.520;13.450;2023-09-19T01:05:34;65.65;;;38.38;;
13368;SDS011;6753;52.520;13.450;2023-09-19T01:05:45;67.78;;;38.60;;
13368;SDS011;6753;52.520;13.450;2023-09-19T01:05:56;67.82;;;38.45;;
13368;SDS011;6753;52.520;13.450;2023-09-19T01:06:10;66.75;;;38.60;;
13368;SDS011;6753;52.520;13.450;2023-09-19T01:06:22;67.55;;;38.70;;
13368;SDS011;6753;52.520;13.450;2023-09-19T01:06:34;65.47;;;38.25;;
13368;SDS011;6753;52.520;13.450;2023-09-19T01:06:46;63.78;;;38.20;;
13368;SDS011;6753;52.520;13.450;2023-09-19T01:07:02;64.53;;;38.10;;
13368;SDS011;6753;52.520;13.450;2023-09-19T01:07:14;64.65;;;37.67;;
13368;SDS011;6753;52.520;13.450;2023-09-19T01:07:25;63.45;;;37.53;;
13368;SDS011;6753;52.520;13.450;2023-09-19T01:07:36;62.90;;;37.17;;
13368;SDS011;6753;52.520;13.450;2023-09-19T01:07:50;62.30;;;37.25;;
13368;SDS011;6753;52.520;13.450;2023-09-19T01:08:03;62.50;;;37.28;;
13368;SDS011;6753;52.520;13.450;2023-09-19T01:08:14;62.35;;;37.17;;
13368;SDS011;6753;52.520;13.450;2023-09-19T01:08:26;62.95;;;37.55;;
13368;SDS011;6753;52.520;13.450;2023-09-19T01:08:39;61.88;;;37.30;;
13368;SDS011;6753;52.520;13.450;2023-09-19T01:08:50;62.28;;;37.03;;
13368;SDS011;6753;52.520;13.450;2023-09-19T01:09:01;60.08;;;36.45;;